createdAt,value
2023-12-16T00:00:21.359Z,101528.25
2023-12-16T00:02:48.317Z,101524.75
2023-12-16T00:05:15.299Z,101527.02
2023-12-16T00:07:42.299Z,101528.08
2023-12-16T00:10:11.212Z,101533.48
2023-12-16T00:12:38.614Z,101535.51
2023-12-16T00:15:06.714Z,101537.84
2023-12-16T00:17:33.968Z,101538.21
2023-12-16T00:20:01.154Z,101537.64
2023-12-16T00:22:28.531Z,101535.09
2023-12-16T00:24:55.596Z,101541.33
2023-12-16T00:27:22.629Z,101534.13
2023-12-16T00:29:49.713Z,101533.39
2023-12-16T00:32:16.724Z,101534.40
2023-12-16T00:34:43.699Z,101533.96
2023-12-16T00:37:10.745Z,101537.63
2023-12-16T00:39:37.833Z,101540.23
2023-12-16T00:42:05.223Z,101545.36
2023-12-16T00:44:33.039Z,101548.06
2023-12-16T00:47:00.288Z,101557.18
2023-12-16T00:49:27.398Z,101567.93
2023-12-16T00:51:54.494Z,101574.44
2023-12-16T00:54:22.083Z,101581.43
2023-12-16T00:56:49.385Z,101585.88
2023-12-16T00:59:16.853Z,101594.17
2023-12-16T01:01:44.433Z,101594.34
2023-12-16T01:04:11.730Z,101587.71
2023-12-16T01:06:39.118Z,101581.80
2023-12-16T01:09:06.006Z,101581.96
2023-12-16T01:11:33.018Z,101585.00
2023-12-16T01:14:00.185Z,101582.29
2023-12-16T01:16:27.343Z,101581.98
2023-12-16T01:18:54.875Z,101587.98
2023-12-16T01:21:22.226Z,101585.33
2023-12-16T01:23:49.226Z,101587.94
2023-12-16T01:26:17.236Z,101593.59
2023-12-16T01:28:44.795Z,101591.08
2023-12-16T01:31:12.012Z,101587.80
2023-12-16T01:33:39.089Z,101589.52
2023-12-16T01:36:06.461Z,101593.32
2023-12-16T01:38:33.346Z,101595.32
2023-12-16T01:41:00.479Z,101598.37
2023-12-16T01:43:27.587Z,101603.27
2023-12-16T01:46:03.233Z,101601.55
2023-12-16T01:48:32.160Z,101596.41
2023-12-16T01:50:59.322Z,101597.77
2023-12-16T01:53:28.587Z,101596.58
2023-12-16T01:55:56.356Z,101598.45
2023-12-16T01:58:24.382Z,101597.96
2023-12-16T02:00:54.121Z,101595.00
2023-12-16T02:03:23.184Z,101592.34
2023-12-16T02:05:50.266Z,101594.34
2023-12-16T02:08:17.428Z,101589.52
2023-12-16T02:10:45.001Z,101589.89
2023-12-16T02:13:12.190Z,101589.73
2023-12-16T02:15:40.212Z,101597.09
2023-12-16T02:18:07.483Z,101596.89
2023-12-16T02:20:34.507Z,101592.87
2023-12-16T02:23:02.402Z,101590.27
2023-12-16T02:25:33.314Z,101588.38
2023-12-16T02:28:00.450Z,101588.82
2023-12-16T02:30:27.538Z,101591.21
2023-12-16T02:32:57.172Z,101594.28
2023-12-16T02:35:24.333Z,101599.15
2023-12-16T02:37:51.457Z,101597.60
2023-12-16T02:40:18.512Z,101597.21
2023-12-16T02:42:45.743Z,101596.13
2023-12-16T02:45:12.874Z,101589.42
2023-12-16T02:47:40.341Z,101586.91
2023-12-16T02:50:08.904Z,101581.52
2023-12-16T02:52:36.483Z,101584.12
2023-12-16T02:55:03.952Z,101585.33
2023-12-16T02:57:30.933Z,101583.02
2023-12-16T02:59:57.920Z,101581.64
2023-12-16T03:02:24.908Z,101582.62
2023-12-16T03:04:53.520Z,101585.84
2023-12-16T03:07:20.633Z,101580.47
2023-12-16T03:09:48.327Z,101579.30
2023-12-16T03:12:15.719Z,101582.50
2023-12-16T03:14:43.330Z,101583.48
2023-12-16T03:17:10.594Z,101585.76
2023-12-16T03:19:38.062Z,101585.04
2023-12-16T03:22:05.414Z,101580.47
2023-12-16T03:24:32.704Z,101578.61
2023-12-16T03:26:59.967Z,101581.02
2023-12-16T03:29:27.007Z,101582.96
2023-12-16T03:31:55.173Z,101583.12
2023-12-16T03:34:23.143Z,101585.05
2023-12-16T03:36:50.273Z,101580.86
2023-12-16T03:39:17.642Z,101582.70
2023-12-16T03:41:44.597Z,101578.89
2023-12-16T03:44:11.639Z,101581.05
2023-12-16T03:46:38.729Z,101580.86
2023-12-16T03:49:05.953Z,101583.80
2023-12-16T03:51:32.938Z,101582.00
2023-12-16T03:54:00.273Z,101586.88
2023-12-16T03:56:27.372Z,101584.48
2023-12-16T03:58:54.440Z,101587.95
2023-12-16T04:01:21.886Z,101596.69
2023-12-16T04:03:49.116Z,101605.98
2023-12-16T04:06:16.603Z,101607.30
2023-12-16T04:08:43.644Z,101605.65
2023-12-16T04:11:10.699Z,101609.55
2023-12-16T04:13:37.682Z,101616.21
2023-12-16T04:16:05.829Z,101611.98
2023-12-16T04:18:33.966Z,101617.86
2023-12-16T04:21:03.104Z,101619.86
2023-12-16T04:23:30.145Z,101615.73
2023-12-16T04:25:57.522Z,101614.05
2023-12-16T04:28:24.483Z,101615.65
2023-12-16T04:30:51.556Z,101623.75
2023-12-16T04:33:18.942Z,101625.29
2023-12-16T04:35:46.197Z,101628.52
2023-12-16T04:38:13.257Z,101627.30
2023-12-16T04:40:40.902Z,101634.91
2023-12-16T04:43:07.995Z,101640.77
2023-12-16T04:45:36.957Z,101641.98
2023-12-16T04:48:04.555Z,101646.60
2023-12-16T04:50:31.759Z,101646.20
2023-12-16T04:52:58.950Z,101644.41
2023-12-16T04:55:26.515Z,101645.85
2023-12-16T04:57:53.666Z,101644.16
2023-12-16T05:00:21.061Z,101650.05
2023-12-16T05:02:48.009Z,101652.13
2023-12-16T05:05:15.495Z,101658.68
2023-12-16T05:07:42.901Z,101662.74
2023-12-16T05:10:12.297Z,101664.80
2023-12-16T05:12:41.541Z,101668.40
2023-12-16T05:15:09.052Z,101664.21
2023-12-16T05:17:36.825Z,101671.41
2023-12-16T05:20:05.090Z,101674.73
2023-12-16T05:22:35.323Z,101674.75
2023-12-16T05:25:03.967Z,101677.02
2023-12-16T05:27:32.213Z,101675.38
2023-12-16T05:30:00.444Z,101680.41
2023-12-16T05:32:30.566Z,101685.86
2023-12-16T05:34:57.976Z,101686.35
2023-12-16T05:37:25.092Z,101693.25
2023-12-16T05:39:54.388Z,101697.85
2023-12-16T05:42:22.092Z,101701.36
2023-12-16T05:44:49.122Z,101697.80
2023-12-16T05:47:16.079Z,101698.06
2023-12-16T05:49:43.280Z,101699.05
2023-12-16T05:52:11.445Z,101698.56
2023-12-16T05:54:38.775Z,101697.70
2023-12-16T05:57:06.117Z,101695.56
2023-12-16T05:59:33.187Z,101691.84
2023-12-16T06:02:00.465Z,101696.48
2023-12-16T06:04:27.509Z,101701.86
2023-12-16T06:06:55.354Z,101703.08
2023-12-16T06:09:22.320Z,101710.30
2023-12-16T06:11:49.231Z,101714.33
2023-12-16T06:14:16.157Z,101719.39
2023-12-16T06:16:43.194Z,101717.09
2023-12-16T06:19:10.834Z,101717.17
2023-12-16T06:21:37.892Z,101716.23
2023-12-16T06:24:06.232Z,101722.72
2023-12-16T06:26:33.182Z,101730.09
2023-12-16T06:29:00.373Z,101727.30
2023-12-16T06:31:27.295Z,101730.28
2023-12-16T06:33:54.747Z,101733.48
2023-12-16T06:36:21.711Z,101734.45
2023-12-16T06:38:48.643Z,101738.15
2023-12-16T06:41:15.588Z,101735.30
2023-12-16T06:43:42.585Z,101739.92
2023-12-16T06:46:09.773Z,101739.84
2023-12-16T06:48:37.345Z,101746.58
2023-12-16T06:51:04.500Z,101745.31
2023-12-16T06:53:32.192Z,101746.73
2023-12-16T06:55:59.212Z,101747.18
2023-12-16T06:58:26.245Z,101748.04
2023-12-16T07:00:53.450Z,101749.05
2023-12-16T07:03:20.687Z,101754.76
2023-12-16T07:05:47.692Z,101758.25
2023-12-16T07:08:14.708Z,101760.15
2023-12-16T07:10:42.191Z,101768.67
2023-12-16T07:13:09.585Z,101771.52
2023-12-16T07:15:36.709Z,101771.90
2023-12-16T07:18:04.545Z,101774.20
2023-12-16T07:20:31.681Z,101775.19
2023-12-16T07:22:58.612Z,101771.50
2023-12-16T07:25:25.635Z,101771.18
2023-12-16T07:27:52.639Z,101778.78
2023-12-16T07:30:19.781Z,101785.73
2023-12-16T07:32:46.823Z,101786.45
2023-12-16T07:35:16.658Z,101791.86
2023-12-16T07:37:44.428Z,101796.09
2023-12-16T07:40:11.875Z,101799.13
2023-12-16T07:42:40.913Z,101795.07
2023-12-16T07:45:09.159Z,101798.84
2023-12-16T07:47:36.523Z,101797.73
2023-12-16T07:50:04.807Z,101800.70
2023-12-16T07:52:32.295Z,101803.95
2023-12-16T07:54:59.500Z,101808.53
2023-12-16T07:57:26.665Z,101812.58
2023-12-16T07:59:54.819Z,101817.88
2023-12-16T08:02:22.125Z,101820.69
2023-12-16T08:04:50.726Z,101817.91
2023-12-16T08:07:17.786Z,101822.46
2023-12-16T08:09:44.758Z,101824.59
2023-12-16T08:12:12.255Z,101827.24
2023-12-16T08:14:39.171Z,101827.94
2023-12-16T08:17:06.401Z,101833.02
2023-12-16T08:19:33.930Z,101837.96
2023-12-16T08:22:03.728Z,101841.27
2023-12-16T08:24:31.108Z,101846.77
2023-12-16T08:26:58.243Z,101849.69
2023-12-16T08:29:25.329Z,101857.29
2023-12-16T08:31:52.803Z,101865.18
2023-12-16T08:34:21.302Z,101868.73
2023-12-16T08:36:50.302Z,101869.43
2023-12-16T08:39:17.424Z,101870.70
2023-12-16T08:41:44.869Z,101871.92
2023-12-16T08:44:11.945Z,101873.67
2023-12-16T08:46:42.779Z,101876.34
2023-12-16T08:49:09.933Z,101880.65
2023-12-16T08:51:36.909Z,101881.38
2023-12-16T08:54:03.955Z,101880.05
2023-12-16T08:56:30.985Z,101877.30
2023-12-16T08:58:58.185Z,101879.95
2023-12-16T09:01:25.179Z,101885.83
2023-12-16T09:03:52.325Z,101888.75
2023-12-16T09:06:19.462Z,101894.11
2023-12-16T09:08:46.636Z,101897.70
2023-12-16T09:11:13.709Z,101897.18
2023-12-16T09:13:40.911Z,101903.58
2023-12-16T09:16:08.234Z,101899.24
2023-12-16T09:18:38.171Z,101903.45
2023-12-16T09:21:06.306Z,101903.95
2023-12-16T09:23:34.844Z,101904.16
2023-12-16T09:26:01.937Z,101904.92
2023-12-16T09:28:29.228Z,101905.67
2023-12-16T09:30:56.590Z,101908.77
2023-12-16T09:33:23.778Z,101907.14
2023-12-16T09:35:50.972Z,101906.46
2023-12-16T09:38:18.083Z,101905.29
2023-12-16T09:40:47.103Z,101908.00
2023-12-16T09:43:18.098Z,101909.52
2023-12-16T09:45:48.047Z,101909.92
2023-12-16T09:48:21.059Z,101913.02
2023-12-16T09:50:48.913Z,101909.80
2023-12-16T09:53:16.762Z,101909.46
2023-12-16T09:55:47.119Z,101909.48
2023-12-16T09:58:16.718Z,101907.77
2023-12-16T10:00:48.409Z,101907.83
2023-12-16T10:03:18.831Z,101909.34
2023-12-16T10:05:48.175Z,101908.42
2023-12-16T10:08:15.116Z,101913.89
2023-12-16T10:10:44.707Z,101908.71
2023-12-16T10:13:14.850Z,101907.50
2023-12-16T10:15:42.514Z,101906.67
2023-12-16T10:18:09.645Z,101900.60
2023-12-16T10:20:36.775Z,101899.04
2023-12-16T10:23:04.376Z,101900.63
2023-12-16T10:25:35.918Z,101898.10
2023-12-16T10:28:04.262Z,101894.51
2023-12-16T10:30:32.949Z,101891.00
2023-12-16T10:33:05.373Z,101887.42
2023-12-16T10:35:38.794Z,101892.78
2023-12-16T10:38:10.501Z,101887.71
2023-12-16T10:40:43.849Z,101884.43
2023-12-16T10:43:13.529Z,101883.95
2023-12-16T10:45:44.817Z,101883.90
2023-12-16T10:48:17.084Z,101884.83
2023-12-16T10:50:49.416Z,101884.58
2023-12-16T10:53:28.109Z,101882.19
2023-12-16T10:56:04.672Z,101882.99
2023-12-16T10:58:45.212Z,101878.75
2023-12-16T11:01:20.339Z,101876.55
2023-12-16T11:03:57.452Z,101874.71
2023-12-16T11:06:48.675Z,101877.30
2023-12-16T11:09:18.317Z,101880.77
2023-12-16T11:11:48.155Z,101875.48
2023-12-16T11:14:19.361Z,101873.41
2023-12-16T11:16:59.816Z,101875.17
2023-12-16T11:19:32.638Z,101876.30
2023-12-16T11:22:02.493Z,101869.59
2023-12-16T11:24:40.458Z,101867.95
2023-12-16T11:27:09.478Z,101868.52
2023-12-16T11:29:38.738Z,101868.83
2023-12-16T11:32:08.220Z,101868.71
2023-12-16T11:34:43.809Z,101863.95
2023-12-16T11:37:13.934Z,101862.67
2023-12-16T11:39:50.316Z,101863.86
2023-12-16T11:42:57.349Z,101861.74
2023-12-16T11:45:46.860Z,101864.92
2023-12-16T11:48:17.780Z,101868.34
2023-12-16T11:50:47.201Z,101870.98
2023-12-16T11:53:18.856Z,101875.36
2023-12-16T11:55:46.843Z,101870.92
2023-12-16T11:58:14.049Z,101870.80
2023-12-16T12:00:44.667Z,101866.76
2023-12-16T12:03:13.038Z,101864.76
2023-12-16T12:05:41.016Z,101868.99
2023-12-16T12:08:08.116Z,101865.98
2023-12-16T12:10:36.132Z,101861.27
2023-12-16T12:13:04.430Z,101853.48
2023-12-16T12:15:35.176Z,101856.51
2023-12-16T12:18:02.393Z,101862.48
2023-12-16T12:20:30.517Z,101860.79
2023-12-16T12:22:58.093Z,101862.97
2023-12-16T12:25:25.532Z,101858.36
2023-12-16T12:27:52.852Z,101862.16
2023-12-16T12:30:22.768Z,101863.02
2023-12-16T12:32:50.464Z,101863.01
2023-12-16T12:35:17.889Z,101860.84
2023-12-16T12:37:46.501Z,101863.81
2023-12-16T12:40:14.982Z,101869.11
2023-12-16T12:42:45.481Z,101867.36
2023-12-16T12:45:24.865Z,101869.59
2023-12-16T12:47:53.621Z,101871.07
2023-12-16T12:50:25.596Z,101873.86
2023-12-16T12:53:18.639Z,101871.06
2023-12-16T12:55:39.952Z,101869.63
2023-12-16T12:58:11.513Z,101869.59
2023-12-16T13:00:46.736Z,101868.77
2023-12-16T13:03:14.229Z,101868.94
2023-12-16T13:05:43.228Z,101870.47
2023-12-16T13:08:11.837Z,101872.58
2023-12-16T13:10:39.408Z,101871.98
2023-12-16T13:13:06.554Z,101870.96
2023-12-16T13:15:52.996Z,101874.30
2023-12-16T13:18:20.482Z,101878.38
2023-12-16T13:20:47.944Z,101873.18
2023-12-16T13:23:15.796Z,101874.13
2023-12-16T13:25:42.845Z,101875.52
2023-12-16T13:28:10.314Z,101875.98
2023-12-16T13:30:37.534Z,101880.55
2023-12-16T13:33:07.711Z,101882.43
2023-12-16T13:35:34.786Z,101883.70
2023-12-16T13:38:01.981Z,101884.11
2023-12-16T13:40:28.894Z,101883.67
2023-12-16T13:42:55.946Z,101886.73
2023-12-16T13:45:23.284Z,101887.00
2023-12-16T13:47:50.601Z,101890.71
2023-12-16T13:50:17.997Z,101892.70
2023-12-16T13:52:45.385Z,101896.58
2023-12-16T13:55:12.523Z,101895.61
2023-12-16T13:57:39.901Z,101898.67
2023-12-16T14:00:08.686Z,101902.14
2023-12-16T14:02:35.911Z,101907.44
2023-12-16T14:05:03.972Z,101908.72
2023-12-16T14:07:30.935Z,101911.84
2023-12-16T14:09:58.050Z,101912.89
2023-12-16T14:12:25.099Z,101914.77
2023-12-16T14:14:53.144Z,101918.77
2023-12-16T14:17:20.165Z,101917.01
2023-12-16T14:19:47.261Z,101919.45
2023-12-16T14:22:14.570Z,101918.39
2023-12-16T14:24:41.486Z,101914.04
2023-12-16T14:27:09.680Z,101914.77
2023-12-16T14:29:37.143Z,101921.87
2023-12-16T14:32:04.477Z,101918.95
2023-12-16T14:34:31.577Z,101923.02
2023-12-16T14:36:58.780Z,101923.42
2023-12-16T14:39:25.752Z,101924.84
2023-12-16T14:41:52.770Z,101923.16
2023-12-16T14:44:19.846Z,101925.08
2023-12-16T14:46:46.930Z,101925.48
2023-12-16T14:49:14.047Z,101930.80
2023-12-16T14:51:41.152Z,101933.50
2023-12-16T14:54:08.457Z,101937.27
2023-12-16T14:56:35.535Z,101943.39
2023-12-16T14:59:02.494Z,101941.91
2023-12-16T15:01:29.718Z,101945.15
2023-12-16T15:03:56.965Z,101949.13
2023-12-16T15:06:30.422Z,101946.89
2023-12-16T15:09:00.086Z,101950.23
2023-12-16T15:11:27.747Z,101950.17
2023-12-16T15:13:54.616Z,101952.79
2023-12-16T15:16:21.961Z,101952.47
2023-12-16T15:18:50.217Z,101955.01
2023-12-16T15:21:18.240Z,101955.42
2023-12-16T15:23:49.384Z,101963.29
2023-12-16T15:26:17.000Z,101966.55
2023-12-16T15:28:46.484Z,101966.89
2023-12-16T15:31:14.353Z,101970.73
2023-12-16T15:33:42.025Z,101968.32
2023-12-16T15:36:12.885Z,101969.42
2023-12-16T15:38:40.029Z,101975.44
2023-12-16T15:41:18.146Z,101976.59
2023-12-16T15:43:45.998Z,101981.70
2023-12-16T15:46:14.248Z,101979.36
2023-12-16T15:48:42.307Z,101983.60
2023-12-16T15:51:09.830Z,101985.30
2023-12-16T15:53:37.101Z,101987.02
2023-12-16T15:56:05.271Z,101987.92
2023-12-16T15:58:32.303Z,101991.64
2023-12-16T16:00:59.562Z,101999.98
2023-12-16T16:03:26.849Z,102011.23
2023-12-16T16:05:54.106Z,102010.04
2023-12-16T16:08:21.221Z,102013.61
2023-12-16T16:10:48.333Z,102010.04
2023-12-16T16:13:15.549Z,102010.38
2023-12-16T16:15:42.703Z,102014.39
2023-12-16T16:18:10.897Z,102016.77
2023-12-16T16:20:38.214Z,102023.00
2023-12-16T16:23:08.338Z,102028.96
2023-12-16T16:25:35.431Z,102037.52
2023-12-16T16:28:02.379Z,102040.10
2023-12-16T16:30:29.477Z,102041.30
2023-12-16T16:32:57.051Z,102041.30
2023-12-16T16:35:24.705Z,102035.93
2023-12-16T16:37:52.625Z,102037.15
2023-12-16T16:40:19.909Z,102038.67
2023-12-16T16:42:47.603Z,102040.05
2023-12-16T16:45:16.438Z,102043.00
2023-12-16T16:47:44.159Z,102044.91
2023-12-16T16:50:11.823Z,102046.88
2023-12-16T16:52:39.989Z,102049.72
2023-12-16T16:55:07.815Z,102055.19
2023-12-16T16:57:35.462Z,102058.10
2023-12-16T17:00:10.783Z,102063.50
2023-12-16T17:02:39.328Z,102073.52
2023-12-16T17:05:08.817Z,102075.05
2023-12-16T17:07:36.572Z,102076.52
2023-12-16T17:10:06.451Z,102073.94
2023-12-16T17:12:34.982Z,102077.31
2023-12-16T17:15:03.258Z,102077.05
2023-12-16T17:17:33.954Z,102083.96
2023-12-16T17:20:01.407Z,102087.50
2023-12-16T17:22:28.942Z,102087.90
2023-12-16T17:24:59.139Z,102090.60
2023-12-16T17:27:26.232Z,102097.84
2023-12-16T17:29:53.296Z,102102.40
2023-12-16T17:32:20.849Z,102104.64
2023-12-16T17:34:48.908Z,102107.04
2023-12-16T17:37:16.584Z,102110.09
2023-12-16T17:39:43.526Z,102108.88
2023-12-16T17:42:11.438Z,102106.73
2023-12-16T17:44:38.431Z,102108.72
2023-12-16T17:47:05.510Z,102111.11
2023-12-16T17:49:32.995Z,102108.92
2023-12-16T17:52:00.105Z,102117.10
2023-12-16T17:54:27.546Z,102119.33
2023-12-16T17:56:54.512Z,102118.00
2023-12-16T17:59:21.645Z,102118.48
2023-12-16T18:01:49.772Z,102120.65
2023-12-16T18:04:17.217Z,102123.93
2023-12-16T18:06:45.254Z,102126.57
2023-12-16T18:09:12.440Z,102124.20
2023-12-16T18:11:41.983Z,102124.93
2023-12-16T18:14:09.171Z,102123.56
2023-12-16T18:16:37.350Z,102122.86
2023-12-16T18:19:05.218Z,102123.90
2023-12-16T18:21:33.674Z,102124.59
2023-12-16T18:24:01.754Z,102127.80
2023-12-16T18:26:29.257Z,102128.27
2023-12-16T18:28:57.214Z,102132.58
2023-12-16T18:31:24.330Z,102135.13
2023-12-16T18:33:51.536Z,102135.81
2023-12-16T18:36:18.836Z,102134.33
2023-12-16T18:38:46.265Z,102134.39
2023-12-16T18:41:13.491Z,102137.41
2023-12-16T18:43:40.660Z,102140.66
2023-12-16T18:46:07.825Z,102141.48
2023-12-16T18:48:35.098Z,102146.69
2023-12-16T18:51:02.264Z,102148.35
2023-12-16T18:53:29.221Z,102146.04
2023-12-16T18:55:57.228Z,102147.18
2023-12-16T18:58:25.502Z,102144.84
2023-12-16T19:00:52.608Z,102150.59
2023-12-16T19:03:20.449Z,102152.27
2023-12-16T19:05:47.710Z,102156.10
2023-12-16T19:08:14.755Z,102162.03
2023-12-16T19:10:42.168Z,102168.27
2023-12-16T19:13:09.348Z,102169.90
2023-12-16T19:15:36.512Z,102167.38
2023-12-16T19:18:04.415Z,102175.98
2023-12-16T19:20:31.531Z,102175.77
2023-12-16T19:22:58.988Z,102183.09
2023-12-16T19:25:26.033Z,102179.39
2023-12-16T19:27:53.071Z,102180.85
2023-12-16T19:30:20.279Z,102180.48
2023-12-16T19:32:47.523Z,102181.75
2023-12-16T19:35:14.840Z,102185.66
2023-12-16T19:37:42.283Z,102187.84
2023-12-16T19:40:10.358Z,102189.08
2023-12-16T19:42:37.367Z,102191.55
2023-12-16T19:45:08.006Z,102192.25
2023-12-16T19:47:35.464Z,102192.59
2023-12-16T19:50:02.625Z,102198.55
2023-12-16T19:52:29.620Z,102200.29
2023-12-16T19:54:56.751Z,102201.85
2023-12-16T19:57:23.907Z,102208.34
2023-12-16T19:59:52.905Z,102212.01
2023-12-16T20:02:19.994Z,102213.70
2023-12-16T20:04:48.399Z,102225.55
2023-12-16T20:07:15.477Z,102225.91
2023-12-16T20:09:43.325Z,102229.69
2023-12-16T20:12:10.717Z,102228.77
2023-12-16T20:14:38.187Z,102230.91
2023-12-16T20:17:05.233Z,102231.08
2023-12-16T20:19:32.496Z,102235.88
2023-12-16T20:22:01.790Z,102240.72
2023-12-16T20:24:29.038Z,102237.98
2023-12-16T20:26:57.140Z,102244.14
2023-12-16T20:29:24.817Z,102247.92
2023-12-16T20:31:53.120Z,102246.98
2023-12-16T20:34:20.372Z,102250.02
2023-12-16T20:36:49.246Z,102247.27
2023-12-16T20:39:35.216Z,102248.59
2023-12-16T20:42:02.422Z,102251.28
2023-12-16T20:44:29.612Z,102251.64
2023-12-16T20:46:56.660Z,102253.23
2023-12-16T20:49:23.903Z,102258.69
2023-12-16T20:51:55.828Z,102258.95
2023-12-16T20:54:23.764Z,102261.73
2023-12-16T20:56:50.932Z,102263.55
2023-12-16T20:59:18.126Z,102262.46
2023-12-16T21:01:45.134Z,102262.30
2023-12-16T21:04:12.729Z,102263.69
2023-12-16T21:06:40.194Z,102267.88
2023-12-16T21:09:07.301Z,102270.96
2023-12-16T21:11:34.409Z,102270.23
2023-12-16T21:14:01.508Z,102270.06
2023-12-16T21:16:28.485Z,102270.23
2023-12-16T21:18:55.701Z,102271.20
2023-12-16T21:21:24.152Z,102269.39
2023-12-16T21:23:51.240Z,102274.77
2023-12-16T21:26:18.273Z,102275.61
2023-12-16T21:28:45.629Z,102280.87
2023-12-16T21:31:12.904Z,102277.37
2023-12-16T21:33:40.219Z,102287.44
2023-12-16T21:36:07.455Z,102286.27
2023-12-16T21:38:34.869Z,102284.05
2023-12-16T21:41:01.889Z,102288.77
2023-12-16T21:43:29.405Z,102294.23
2023-12-16T21:45:56.512Z,102296.66
2023-12-16T21:48:26.017Z,102298.95
2023-12-16T21:50:52.986Z,102295.77
2023-12-16T21:53:20.418Z,102294.35
2023-12-16T21:55:47.455Z,102298.39
2023-12-16T21:58:14.381Z,102298.90
2023-12-16T22:00:41.415Z,102303.99
2023-12-16T22:03:08.626Z,102304.15
2023-12-16T22:05:36.419Z,102301.73
2023-12-16T22:08:06.010Z,102306.17
2023-12-16T22:10:34.472Z,102309.01
2023-12-16T22:13:01.364Z,102312.83
2023-12-16T22:15:28.900Z,102313.27
2023-12-16T22:17:56.259Z,102311.27
2023-12-16T22:20:23.305Z,102305.83
2023-12-16T22:22:52.738Z,102306.94
2023-12-16T22:25:19.693Z,102306.73
2023-12-16T22:27:47.229Z,102310.17
2023-12-16T22:30:14.724Z,102310.48
2023-12-16T22:32:42.122Z,102308.53
2023-12-16T22:35:09.575Z,102305.71
2023-12-16T22:37:37.207Z,102308.30
2023-12-16T22:40:04.692Z,102305.64
2023-12-16T22:42:31.844Z,102308.73
2023-12-16T22:44:58.973Z,102307.46
2023-12-16T22:47:27.275Z,102303.75
2023-12-16T22:49:57.642Z,102304.00
2023-12-16T22:52:24.699Z,102309.61
2023-12-16T22:54:51.730Z,102308.52
2023-12-16T22:57:18.949Z,102305.79
2023-12-16T22:59:46.043Z,102308.88
2023-12-16T23:02:13.052Z,102308.92
2023-12-16T23:04:40.679Z,102308.77
2023-12-16T23:07:07.787Z,102314.99
2023-12-16T23:09:37.880Z,102317.34
2023-12-16T23:12:05.806Z,102316.45
2023-12-16T23:14:32.842Z,102317.98
2023-12-16T23:16:59.861Z,102317.66
2023-12-16T23:19:26.900Z,102315.73
2023-12-16T23:21:54.808Z,102317.59
2023-12-16T23:24:21.852Z,102318.61
2023-12-16T23:26:49.031Z,102317.87
2023-12-16T23:29:16.169Z,102320.66
2023-12-16T23:31:43.131Z,102325.44
2023-12-16T23:34:10.266Z,102324.80
2023-12-16T23:36:37.408Z,102325.39
2023-12-16T23:39:04.621Z,102325.91
2023-12-16T23:41:31.885Z,102325.23
2023-12-16T23:43:58.830Z,102326.82
2023-12-16T23:46:25.884Z,102324.45
2023-12-16T23:48:52.945Z,102326.23
2023-12-16T23:51:20.250Z,102324.48
2023-12-16T23:53:48.474Z,102323.11
2023-12-16T23:56:23.262Z,102324.80
2023-12-16T23:58:50.414Z,102329.49
